sensor_id;sensor_type;location;lat;lon;timestamp;pressure;altitude;pressure_sealevel;temperature;humidity
34177;BME280;20450;49.074;9.158;2023-03-03T00:00:10;100040.22;;;4.89;68.84
34177;BME280;20450;49.074;9.158;2023-03-03T00:02:41;100044.38;;;4.84;68.90
34177;BME280;20450;49.074;9.158;2023-03-03T00:05:08;100030.38;;;4.82;69.56
34177;BME280;20450;49.074;9.158;2023-03-03T00:07:35;100033.53;;;4.85;68.93
34177;BME280;20450;49.074;9.158;2023-03-03T00:10:03;100035.84;;;4.88;69.00
34177;BME280;20450;49.074;9.158;2023-03-03T00:12:33;100030.34;;;4.90;68.77
34177;BME280;20450;49.074;9.158;2023-03-03T00:15:14;100036.53;;;4.90;68.53
34177;BME280;20450;49.074;9.158;2023-03-03T00:17:43;100040.41;;;4.88;68.58
34177;BME280;20450;49.074;9.158;2023-03-03T00:20:30;100037.72;;;4.88;68.26
34177;BME280;20450;49.074;9.158;2023-03-03T00:23:12;100040.56;;;4.86;67.86
34177;BME280;20450;49.074;9.158;2023-03-03T00:25:43;100032.34;;;4.80;68.12
34177;BME280;20450;49.074;9.158;2023-03-03T00:28:23;100036.06;;;4.79;67.68
34177;BME280;20450;49.074;9.158;2023-03-03T00:30:53;100040.72;;;4.69;67.95
34177;BME280;20450;49.074;9.158;2023-03-03T00:33:28;100045.75;;;4.64;68.36
34177;BME280;20450;49.074;9.158;2023-03-03T00:36:05;100047.59;;;4.63;68.48
34177;BME280;20450;49.074;9.158;2023-03-03T00:38:48;100047.78;;;4.54;68.69
34177;BME280;20450;49.074;9.158;2023-03-03T00:41:19;100049.75;;;4.20;71.41
34177;BME280;20450;49.074;9.158;2023-03-03T00:43:51;100051.38;;;4.04;72.48
34177;BME280;20450;49.074;9.158;2023-03-03T00:46:20;100055.69;;;3.56;74.40
34177;BME280;20450;49.074;9.158;2023-03-03T00:48:49;100057.09;;;3.34;76.03
34177;BME280;20450;49.074;9.158;2023-03-03T00:51:25;100055.72;;;3.30;76.60
34177;BME280;20450;49.074;9.158;2023-03-03T00:53:54;100056.25;;;3.34;76.02
34177;BME280;20450;49.074;9.158;2023-03-03T00:56:21;100058.34;;;3.48;75.72
34177;BME280;20450;49.074;9.158;2023-03-03T00:58:50;100045.16;;;3.54;75.42
34177;BME280;20450;49.074;9.158;2023-03-03T01:01:20;100050.50;;;3.46;76.05
34177;BME280;20450;49.074;9.158;2023-03-03T01:03:50;100055.94;;;3.37;76.63
34177;BME280;20450;49.074;9.158;2023-03-03T01:06:17;100052.50;;;3.19;76.70
34177;BME280;20450;49.074;9.158;2023-03-03T01:08:44;100058.94;;;2.83;77.52
34177;BME280;20450;49.074;9.158;2023-03-03T01:11:13;100053.59;;;2.57;78.12
34177;BME280;20450;49.074;9.158;2023-03-03T01:13:45;100052.81;;;2.47;79.93
34177;BME280;20450;49.074;9.158;2023-03-03T01:16:16;100047.56;;;2.55;79.96
34177;BME280;20450;49.074;9.158;2023-03-03T01:18:43;100050.22;;;2.55;80.02
34177;BME280;20450;49.074;9.158;2023-03-03T01:21:11;100050.75;;;2.59;80.18
34177;BME280;20450;49.074;9.158;2023-03-03T01:23:38;100052.09;;;2.80;79.21
34177;BME280;20450;49.074;9.158;2023-03-03T01:26:05;100051.06;;;2.99;78.42
34177;BME280;20450;49.074;9.158;2023-03-03T01:28:32;100047.22;;;3.01;77.71
34177;BME280;20450;49.074;9.158;2023-03-03T01:31:00;100041.09;;;3.09;77.68
34177;BME280;20450;49.074;9.158;2023-03-03T01:33:29;100043.69;;;3.18;77.06
34177;BME280;20450;49.074;9.158;2023-03-03T01:35:55;100042.88;;;3.26;76.20
34177;BME280;20450;49.074;9.158;2023-03-03T01:38:22;100038.38;;;3.01;76.24
34177;BME280;20450;49.074;9.158;2023-03-03T01:40:51;100047.25;;;2.58;78.11
34177;BME280;20450;49.074;9.158;2023-03-03T01:43:19;100032.56;;;2.37;78.92
34177;BME280;20450;49.074;9.158;2023-03-03T01:49:03;100036.72;;;1.69;81.65
34177;BME280;20450;49.074;9.158;2023-03-03T01:51:42;100044.38;;;1.54;82.47
34177;BME280;20450;49.074;9.158;2023-03-03T01:54:18;100028.72;;;1.42;83.15
34177;BME280;20450;49.074;9.158;2023-03-03T01:56:50;100036.03;;;1.40;83.04
34177;BME280;20450;49.074;9.158;2023-03-03T01:59:26;100031.53;;;1.40;83.44
34177;BME280;20450;49.074;9.158;2023-03-03T02:01:57;100038.75;;;1.57;83.11
34177;BME280;20450;49.074;9.158;2023-03-03T02:04:27;100026.00;;;1.78;82.69
34177;BME280;20450;49.074;9.158;2023-03-03T02:06:57;100027.69;;;1.97;81.81
34177;BME280;20450;49.074;9.158;2023-03-03T02:09:33;100031.13;;;2.25;80.13
34177;BME280;20450;49.074;9.158;2023-03-03T02:12:10;100021.81;;;2.46;78.69
34177;BME280;20450;49.074;9.158;2023-03-03T02:14:40;100031.31;;;2.66;77.48
34177;BME280;20450;49.074;9.158;2023-03-03T02:17:07;100031.78;;;2.62;77.88
34177;BME280;20450;49.074;9.158;2023-03-03T02:19:42;100027.88;;;2.56;78.11
34177;BME280;20450;49.074;9.158;2023-03-03T02:22:21;100029.13;;;2.44;78.35
34177;BME280;20450;49.074;9.158;2023-03-03T02:24:56;100040.47;;;1.93;80.23
34177;BME280;20450;49.074;9.158;2023-03-03T02:27:30;100039.03;;;1.81;81.34
34177;BME280;20450;49.074;9.158;2023-03-03T02:30:08;100030.66;;;1.94;81.41
34177;BME280;20450;49.074;9.158;2023-03-03T02:32:41;100037.09;;;1.74;81.52
34177;BME280;20450;49.074;9.158;2023-03-03T02:35:27;100034.97;;;1.77;82.26
34177;BME280;20450;49.074;9.158;2023-03-03T02:38:03;100035.97;;;1.94;81.70
34177;BME280;20450;49.074;9.158;2023-03-03T02:40:41;100036.53;;;2.15;81.07
34177;BME280;20450;49.074;9.158;2023-03-03T02:43:16;100025.88;;;2.33;79.76
34177;BME280;20450;49.074;9.158;2023-03-03T02:45:46;100041.16;;;2.48;78.82
34177;BME280;20450;49.074;9.158;2023-03-03T02:48:13;100041.91;;;2.58;77.10
34177;BME280;20450;49.074;9.158;2023-03-03T02:50:41;100035.97;;;2.64;75.77
34177;BME280;20450;49.074;9.158;2023-03-03T02:53:07;100037.31;;;2.68;74.94
34177;BME280;20450;49.074;9.158;2023-03-03T02:55:35;100042.00;;;2.66;74.38
34177;BME280;20450;49.074;9.158;2023-03-03T02:58:02;100044.34;;;2.69;74.43
34177;BME280;20450;49.074;9.158;2023-03-03T03:00:30;100045.16;;;2.70;74.43
34177;BME280;20450;49.074;9.158;2023-03-03T03:02:57;100044.34;;;2.69;74.36
34177;BME280;20450;49.074;9.158;2023-03-03T03:05:24;100043.50;;;2.69;74.68
34177;BME280;20450;49.074;9.158;2023-03-03T03:07:51;100035.44;;;2.43;75.98
34177;BME280;20450;49.074;9.158;2023-03-03T03:10:19;100044.06;;;1.84;79.31
34177;BME280;20450;49.074;9.158;2023-03-03T03:12:46;100047.66;;;1.66;80.25
34177;BME280;20450;49.074;9.158;2023-03-03T03:15:13;100048.00;;;1.53;81.44
34177;BME280;20450;49.074;9.158;2023-03-03T03:17:42;100053.56;;;1.60;81.82
34177;BME280;20450;49.074;9.158;2023-03-03T03:20:10;100047.91;;;1.72;81.71
34177;BME280;20450;49.074;9.158;2023-03-03T03:22:37;100054.19;;;1.71;80.79
34177;BME280;20450;49.074;9.158;2023-03-03T03:25:07;100043.81;;;1.78;80.04
34177;BME280;20450;49.074;9.158;2023-03-03T03:27:34;100049.22;;;1.86;79.70
34177;BME280;20450;49.074;9.158;2023-03-03T03:30:02;100048.16;;;1.96;78.47
34177;BME280;20450;49.074;9.158;2023-03-03T03:32:30;100055.41;;;2.04;77.03
34177;BME280;20450;49.074;9.158;2023-03-03T03:34:58;100058.06;;;2.04;76.56
34177;BME280;20450;49.074;9.158;2023-03-03T03:37:25;100055.63;;;2.11;76.30
34177;BME280;20450;49.074;9.158;2023-03-03T03:39:52;100050.41;;;2.19;75.67
34177;BME280;20450;49.074;9.158;2023-03-03T03:42:19;100048.94;;;2.24;75.41
34177;BME280;20450;49.074;9.158;2023-03-03T03:44:46;100049.78;;;2.25;75.05
34177;BME280;20450;49.074;9.158;2023-03-03T03:47:13;100044.84;;;2.12;77.02
34177;BME280;20450;49.074;9.158;2023-03-03T03:49:40;100045.88;;;1.84;78.89
34177;BME280;20450;49.074;9.158;2023-03-03T03:52:09;100049.75;;;1.62;80.23
34177;BME280;20450;49.074;9.158;2023-03-03T03:54:35;100056.50;;;1.66;80.86
34177;BME280;20450;49.074;9.158;2023-03-03T03:57:03;100053.97;;;1.65;81.04
34177;BME280;20450;49.074;9.158;2023-03-03T03:59:30;100058.31;;;1.66;81.13
34177;BME280;20450;49.074;9.158;2023-03-03T04:01:57;100058.25;;;1.75;79.81
34177;BME280;20450;49.074;9.158;2023-03-03T04:04:25;100053.72;;;1.85;78.22
34177;BME280;20450;49.074;9.158;2023-03-03T04:06:55;100059.66;;;1.97;76.98
34177;BME280;20450;49.074;9.158;2023-03-03T04:09:27;100060.88;;;2.02;76.28
34177;BME280;20450;49.074;9.158;2023-03-03T04:11:53;100069.97;;;2.10;76.61
34177;BME280;20450;49.074;9.158;2023-03-03T04:14:20;100062.78;;;2.10;77.70
34177;BME280;20450;49.074;9.158;2023-03-03T04:16:47;100070.63;;;2.12;78.51
34177;BME280;20450;49.074;9.158;2023-03-03T04:19:15;100064.78;;;2.08;79.51
34177;BME280;20450;49.074;9.158;2023-03-03T04:21:42;100067.28;;;2.10;79.46
34177;BME280;20450;49.074;9.158;2023-03-03T04:24:09;100067.00;;;2.13;79.33
34177;BME280;20450;49.074;9.158;2023-03-03T04:26:38;100070.03;;;2.18;77.99
34177;BME280;20450;49.074;9.158;2023-03-03T04:29:06;100078.25;;;2.24;76.94
34177;BME280;20450;49.074;9.158;2023-03-03T04:31:33;100075.03;;;2.03;75.59
34177;BME280;20450;49.074;9.158;2023-03-03T04:34:02;100069.25;;;1.90;76.42
34177;BME280;20450;49.074;9.158;2023-03-03T04:36:29;100075.19;;;2.01;75.63
34177;BME280;20450;49.074;9.158;2023-03-03T04:38:57;100070.63;;;2.12;74.85
34177;BME280;20450;49.074;9.158;2023-03-03T04:41:24;100070.56;;;2.21;74.22
34177;BME280;20450;49.074;9.158;2023-03-03T04:43:53;100076.75;;;2.22;73.68
34177;BME280;20450;49.074;9.158;2023-03-03T04:46:19;100073.63;;;2.26;73.67
34177;BME280;20450;49.074;9.158;2023-03-03T04:48:46;100067.16;;;2.29;73.69
34177;BME280;20450;49.074;9.158;2023-03-03T04:51:14;100068.31;;;2.26;74.25
34177;BME280;20450;49.074;9.158;2023-03-03T04:53:43;100068.75;;;2.22;74.92
34177;BME280;20450;49.074;9.158;2023-03-03T04:56:10;100071.28;;;2.23;75.61
34177;BME280;20450;49.074;9.158;2023-03-03T04:58:37;100066.44;;;2.27;75.69
34177;BME280;20450;49.074;9.158;2023-03-03T05:01:06;100063.34;;;2.31;75.45
34177;BME280;20450;49.074;9.158;2023-03-03T05:03:36;100067.34;;;2.35;75.84
34177;BME280;20450;49.074;9.158;2023-03-03T05:06:03;100069.06;;;2.36;75.62
34177;BME280;20450;49.074;9.158;2023-03-03T05:08:31;100081.78;;;2.42;75.49
34177;BME280;20450;49.074;9.158;2023-03-03T05:10:58;100082.97;;;2.48;75.55
34177;BME280;20450;49.074;9.158;2023-03-03T05:13:25;100095.69;;;2.54;75.53
34177;BME280;20450;49.074;9.158;2023-03-03T05:15:53;100086.56;;;2.56;75.44
34177;BME280;20450;49.074;9.158;2023-03-03T05:18:23;100090.91;;;2.57;75.50
34177;BME280;20450;49.074;9.158;2023-03-03T05:20:51;100088.59;;;2.62;76.41
34177;BME280;20450;49.074;9.158;2023-03-03T05:23:19;100098.00;;;2.66;75.87
34177;BME280;20450;49.074;9.158;2023-03-03T05:25:46;100096.69;;;2.70;75.48
34177;BME280;20450;49.074;9.158;2023-03-03T05:28:14;100095.03;;;2.69;75.38
34177;BME280;20450;49.074;9.158;2023-03-03T05:30:41;100103.69;;;2.71;75.18
34177;BME280;20450;49.074;9.158;2023-03-03T05:33:11;100092.72;;;2.74;75.44
34177;BME280;20450;49.074;9.158;2023-03-03T05:35:42;100102.84;;;2.53;75.51
34177;BME280;20450;49.074;9.158;2023-03-03T05:38:10;100096.22;;;2.40;76.94
34177;BME280;20450;49.074;9.158;2023-03-03T05:40:37;100099.59;;;2.42;77.08
34177;BME280;20450;49.074;9.158;2023-03-03T05:43:04;100111.00;;;2.52;77.04
34177;BME280;20450;49.074;9.158;2023-03-03T05:45:31;100110.78;;;2.63;76.91
34177;BME280;20450;49.074;9.158;2023-03-03T05:47:58;100110.94;;;2.61;76.34
34177;BME280;20450;49.074;9.158;2023-03-03T05:50:25;100115.81;;;2.66;76.42
34177;BME280;20450;49.074;9.158;2023-03-03T05:52:53;100122.34;;;2.71;75.74
34177;BME280;20450;49.074;9.158;2023-03-03T05:55:20;100115.91;;;2.74;74.79
34177;BME280;20450;49.074;9.158;2023-03-03T05:57:47;100121.06;;;2.75;74.14
34177;BME280;20450;49.074;9.158;2023-03-03T06:00:16;100120.06;;;2.76;73.89
34177;BME280;20450;49.074;9.158;2023-03-03T06:02:43;100120.38;;;2.73;73.78
34177;BME280;20450;49.074;9.158;2023-03-03T06:05:10;100122.03;;;2.74;73.66
34177;BME280;20450;49.074;9.158;2023-03-03T06:07:37;100123.75;;;2.75;74.09
34177;BME280;20450;49.074;9.158;2023-03-03T06:10:07;100128.06;;;2.76;73.90
34177;BME280;20450;49.074;9.158;2023-03-03T06:12:38;100131.44;;;2.78;73.67
34177;BME280;20450;49.074;9.158;2023-03-03T06:15:06;100134.94;;;2.79;73.60
34177;BME280;20450;49.074;9.158;2023-03-03T06:17:33;100142.47;;;2.83;73.73
34177;BME280;20450;49.074;9.158;2023-03-03T06:20:00;100139.03;;;2.91;73.51
34177;BME280;20450;49.074;9.158;2023-03-03T06:22:27;100140.09;;;2.98;72.47
34177;BME280;20450;49.074;9.158;2023-03-03T06:24:54;100141.31;;;3.03;72.35
34177;BME280;20450;49.074;9.158;2023-03-03T06:27:22;100135.66;;;3.06;72.13
34177;BME280;20450;49.074;9.158;2023-03-03T06:29:49;100144.88;;;3.12;72.13
34177;BME280;20450;49.074;9.158;2023-03-03T06:32:16;100147.94;;;3.17;71.85
34177;BME280;20450;49.074;9.158;2023-03-03T06:34:43;100151.25;;;3.19;71.37
34177;BME280;20450;49.074;9.158;2023-03-03T06:37:10;100146.31;;;3.24;70.88
34177;BME280;20450;49.074;9.158;2023-03-03T06:39:37;100155.66;;;3.28;70.28
34177;BME280;20450;49.074;9.158;2023-03-03T06:42:04;100161.69;;;3.30;70.95
34177;BME280;20450;49.074;9.158;2023-03-03T06:44:32;100156.44;;;3.20;71.36
34177;BME280;20450;49.074;9.158;2023-03-03T06:46:59;100162.00;;;3.27;71.85
34177;BME280;20450;49.074;9.158;2023-03-03T06:49:26;100159.91;;;3.38;70.61
34177;BME280;20450;49.074;9.158;2023-03-03T06:51:53;100170.75;;;3.62;69.94
34177;BME280;20450;49.074;9.158;2023-03-03T06:54:24;100169.53;;;4.16;68.12
34177;BME280;20450;49.074;9.158;2023-03-03T06:57:00;100159.50;;;4.92;65.30
34177;BME280;20450;49.074;9.158;2023-03-03T06:59:40;100164.50;;;5.43;62.66
34177;BME280;20450;49.074;9.158;2023-03-03T07:02:13;100165.25;;;5.99;60.02
34177;BME280;20450;49.074;9.158;2023-03-03T07:04:44;100164.13;;;6.55;57.75
34177;BME280;20450;49.074;9.158;2023-03-03T07:07:16;100163.19;;;7.16;56.05
34177;BME280;20450;49.074;9.158;2023-03-03T07:09:46;100167.66;;;7.60;54.60
34177;BME280;20450;49.074;9.158;2023-03-03T07:12:17;100162.03;;;7.84;54.80
34177;BME280;20450;49.074;9.158;2023-03-03T07:14:47;100177.25;;;8.36;52.44
34177;BME280;20450;49.074;9.158;2023-03-03T07:17:19;100164.06;;;8.55;52.20
34177;BME280;20450;49.074;9.158;2023-03-03T07:19:46;100161.34;;;9.12;50.08
34177;BME280;20450;49.074;9.158;2023-03-03T07:22:16;100156.63;;;9.41;49.45
34177;BME280;20450;49.074;9.158;2023-03-03T07:24:45;100169.72;;;9.72;47.63
34177;BME280;20450;49.074;9.158;2023-03-03T07:27:20;100172.03;;;10.02;47.02
34177;BME280;20450;49.074;9.158;2023-03-03T07:29:52;100183.22;;;9.99;46.67
34177;BME280;20450;49.074;9.158;2023-03-03T07:32:25;100186.06;;;10.19;46.70
34177;BME280;20450;49.074;9.158;2023-03-03T07:34:55;100173.22;;;9.93;46.75
34177;BME280;20450;49.074;9.158;2023-03-03T07:37:28;100187.78;;;9.71;47.32
34177;BME280;20450;49.074;9.158;2023-03-03T07:39:57;100188.44;;;10.42;45.87
34177;BME280;20450;49.074;9.158;2023-03-03T07:42:27;100187.31;;;10.70;44.39
34177;BME280;20450;49.074;9.158;2023-03-03T07:45:25;100195.63;;;10.69;45.07
34177;BME280;20450;49.074;9.158;2023-03-03T07:47:59;100195.63;;;10.69;45.27
34177;BME280;20450;49.074;9.158;2023-03-03T07:50:33;100192.19;;;10.41;45.48
34177;BME280;20450;49.074;9.158;2023-03-03T07:53:01;100197.56;;;10.81;44.65
34177;BME280;20450;49.074;9.158;2023-03-03T07:55:34;100197.88;;;11.32;43.15
34177;BME280;20450;49.074;9.158;2023-03-03T07:58:19;100190.81;;;11.44;42.34
34177;BME280;20450;49.074;9.158;2023-03-03T08:04:15;100195.25;;;12.61;40.42
34177;BME280;20450;49.074;9.158;2023-03-03T08:06:47;100194.06;;;12.37;39.96
34177;BME280;20450;49.074;9.158;2023-03-03T08:09:36;100194.84;;;12.57;40.45
34177;BME280;20450;49.074;9.158;2023-03-03T08:12:33;100188.63;;;13.01;39.32
34177;BME280;20450;49.074;9.158;2023-03-03T08:15:17;100187.59;;;13.33;37.98
34177;BME280;20450;49.074;9.158;2023-03-03T08:17:52;100187.28;;;13.47;37.82
34177;BME280;20450;49.074;9.158;2023-03-03T08:20:43;100180.84;;;14.09;36.76
34177;BME280;20450;49.074;9.158;2023-03-03T08:23:12;100188.31;;;14.38;35.95
34177;BME280;20450;49.074;9.158;2023-03-03T08:25:41;100183.06;;;14.43;35.36
34177;BME280;20450;49.074;9.158;2023-03-03T08:28:09;100186.06;;;14.35;35.28
34177;BME280;20450;49.074;9.158;2023-03-03T08:30:37;100189.91;;;14.03;35.66
34177;BME280;20450;49.074;9.158;2023-03-03T08:33:06;100186.69;;;14.37;35.16
34177;BME280;20450;49.074;9.158;2023-03-03T08:35:33;100198.88;;;14.64;34.93
34177;BME280;20450;49.074;9.158;2023-03-03T08:38:00;100198.75;;;14.77;33.79
34177;BME280;20450;49.074;9.158;2023-03-03T08:40:28;100199.03;;;14.87;34.42
34177;BME280;20450;49.074;9.158;2023-03-03T08:42:56;100200.81;;;14.21;35.50
34177;BME280;20450;49.074;9.158;2023-03-03T08:45:24;100204.44;;;12.60;38.58
34177;BME280;20450;49.074;9.158;2023-03-03T08:47:51;100207.19;;;12.47;38.69
34177;BME280;20450;49.074;9.158;2023-03-03T08:50:20;100215.16;;;12.86;39.09
34177;BME280;20450;49.074;9.158;2023-03-03T08:52:47;100205.50;;;12.96;39.62
34177;BME280;20450;49.074;9.158;2023-03-03T08:55:14;100211.78;;;13.03;38.48
34177;BME280;20450;49.074;9.158;2023-03-03T08:57:41;100213.25;;;12.93;38.72
34177;BME280;20450;49.074;9.158;2023-03-03T09:00:11;100218.72;;;12.23;40.33
34177;BME280;20450;49.074;9.158;2023-03-03T09:02:41;100213.00;;;11.00;42.54
34177;BME280;20450;49.074;9.158;2023-03-03T09:05:09;100216.19;;;11.30;42.07
34177;BME280;20450;49.074;9.158;2023-03-03T09:07:39;100215.16;;;11.50;41.46
34177;BME280;20450;49.074;9.158;2023-03-03T09:10:07;100212.28;;;11.91;40.95
34177;BME280;20450;49.074;9.158;2023-03-03T09:12:38;100216.03;;;11.97;40.82
34177;BME280;20450;49.074;9.158;2023-03-03T09:15:14;100212.91;;;12.06;40.02
34177;BME280;20450;49.074;9.158;2023-03-03T09:17:46;100214.13;;;11.45;41.24
34177;BME280;20450;49.074;9.158;2023-03-03T09:20:23;100214.59;;;12.01;40.36
34177;BME280;20450;49.074;9.158;2023-03-03T09:22:59;100219.25;;;12.44;39.83
34177;BME280;20450;49.074;9.158;2023-03-03T09:25:50;100209.63;;;13.12;38.16
34177;BME280;20450;49.074;9.158;2023-03-03T09:28:22;100220.63;;;13.54;37.52
34177;BME280;20450;49.074;9.158;2023-03-03T09:30:52;100214.66;;;13.95;36.16
34177;BME280;20450;49.074;9.158;2023-03-03T09:33:27;100220.41;;;14.05;35.47
34177;BME280;20450;49.074;9.158;2023-03-03T09:36:02;100221.41;;;14.71;34.77
34177;BME280;20450;49.074;9.158;2023-03-03T09:38:43;100218.34;;;14.79;34.84
34177;BME280;20450;49.074;9.158;2023-03-03T09:41:45;100213.53;;;14.45;35.27
34177;BME280;20450;49.074;9.158;2023-03-03T09:44:50;100216.28;;;15.11;34.20
34177;BME280;20450;49.074;9.158;2023-03-03T09:47:54;100223.06;;;15.20;34.00
34177;BME280;20450;49.074;9.158;2023-03-03T09:50:48;100231.06;;;15.15;33.59
34177;BME280;20450;49.074;9.158;2023-03-03T09:53:32;100233.63;;;14.80;34.13
34177;BME280;20450;49.074;9.158;2023-03-03T09:56:18;100232.16;;;14.96;34.88
34177;BME280;20450;49.074;9.158;2023-03-03T09:59:00;100230.47;;;15.60;33.80
34177;BME280;20450;49.074;9.158;2023-03-03T10:01:49;100226.03;;;16.12;32.75
34177;BME280;20450;49.074;9.158;2023-03-03T10:04:41;100219.84;;;16.40;32.10
34177;BME280;20450;49.074;9.158;2023-03-03T10:07:22;100226.53;;;16.44;31.68
34177;BME280;20450;49.074;9.158;2023-03-03T10:10:18;100222.69;;;16.68;31.28
34177;BME280;20450;49.074;9.158;2023-03-03T10:13:06;100220.88;;;16.85;31.15
34177;BME280;20450;49.074;9.158;2023-03-03T10:15:51;100221.44;;;16.98;30.51
34177;BME280;20450;49.074;9.158;2023-03-03T10:18:35;100213.44;;;17.08;30.92
34177;BME280;20450;49.074;9.158;2023-03-03T10:21:11;100209.94;;;17.41;30.48
34177;BME280;20450;49.074;9.158;2023-03-03T10:23:52;100206.97;;;17.54;29.48
34177;BME280;20450;49.074;9.158;2023-03-03T10:26:47;100212.59;;;17.64;29.68
34177;BME280;20450;49.074;9.158;2023-03-03T10:29:48;100203.84;;;17.79;29.37
34177;BME280;20450;49.074;9.158;2023-03-03T10:32:42;100208.53;;;18.49;28.88
34177;BME280;20450;49.074;9.158;2023-03-03T10:35:21;100206.44;;;18.56;28.31
34177;BME280;20450;49.074;9.158;2023-03-03T10:38:08;100203.22;;;18.43;28.89
34177;BME280;20450;49.074;9.158;2023-03-03T10:40:53;100212.41;;;18.75;28.30
34177;BME280;20450;49.074;9.158;2023-03-03T10:47:00;100203.56;;;19.11;27.47
34177;BME280;20450;49.074;9.158;2023-03-03T10:49:56;100217.06;;;19.17;27.32
34177;BME280;20450;49.074;9.158;2023-03-03T10:52:40;100225.50;;;19.37;27.51
34177;BME280;20450;49.074;9.158;2023-03-03T10:55:35;100221.22;;;18.98;27.14
34177;BME280;20450;49.074;9.158;2023-03-03T10:58:27;100222.97;;;19.09;27.05
34177;BME280;20450;49.074;9.158;2023-03-03T11:01:20;100220.94;;;19.21;27.16
34177;BME280;20450;49.074;9.158;2023-03-03T11:04:17;100223.81;;;18.67;27.72
34177;BME280;20450;49.074;9.158;2023-03-03T11:06:53;100231.25;;;19.14;27.16
34177;BME280;20450;49.074;9.158;2023-03-03T11:09:39;100225.13;;;18.43;28.33
34177;BME280;20450;49.074;9.158;2023-03-03T11:12:25;100221.16;;;17.68;29.78
34177;BME280;20450;49.074;9.158;2023-03-03T11:15:12;100216.91;;;17.93;28.98
34177;BME280;20450;49.074;9.158;2023-03-03T11:18:06;100210.88;;;17.91;28.39
34177;BME280;20450;49.074;9.158;2023-03-03T11:20:48;100211.09;;;18.39;29.10
34177;BME280;20450;49.074;9.158;2023-03-03T11:23:40;100211.06;;;19.20;26.95
34177;BME280;20450;49.074;9.158;2023-03-03T11:26:29;100211.59;;;19.71;26.88
34177;BME280;20450;49.074;9.158;2023-03-03T11:29:29;100211.31;;;19.19;26.92
34177;BME280;20450;49.074;9.158;2023-03-03T11:32:20;100203.19;;;18.59;27.28
34177;BME280;20450;49.074;9.158;2023-03-03T11:35:19;100208.28;;;17.68;29.58
34177;BME280;20450;49.074;9.158;2023-03-03T11:38:04;100203.13;;;18.21;28.57
34177;BME280;20450;49.074;9.158;2023-03-03T11:40:48;100203.19;;;18.59;28.29
34177;BME280;20450;49.074;9.158;2023-03-03T11:43:21;100199.41;;;18.44;28.51
34177;BME280;20450;49.074;9.158;2023-03-03T11:46:04;100197.41;;;18.39;28.45
34177;BME280;20450;49.074;9.158;2023-03-03T11:48:41;100189.25;;;18.82;28.09
34177;BME280;20450;49.074;9.158;2023-03-03T11:51:19;100183.72;;;18.77;28.49
34177;BME280;20450;49.074;9.158;2023-03-03T11:54:00;100186.75;;;19.51;27.21
34177;BME280;20450;49.074;9.158;2023-03-03T11:56:37;100177.34;;;19.73;26.76
34177;BME280;20450;49.074;9.158;2023-03-03T11:59:36;100181.84;;;19.84;26.25
34177;BME280;20450;49.074;9.158;2023-03-03T12:02:32;100177.41;;;18.98;27.48
34177;BME280;20450;49.074;9.158;2023-03-03T12:05:14;100174.34;;;17.81;29.08
34177;BME280;20450;49.074;9.158;2023-03-03T12:08:07;100181.09;;;15.27;33.25
34177;BME280;20450;49.074;9.158;2023-03-03T12:10:51;100167.97;;;15.36;34.00
34177;BME280;20450;49.074;9.158;2023-03-03T12:13:32;100159.63;;;15.19;34.54
34177;BME280;20450;49.074;9.158;2023-03-03T12:16:12;100161.16;;;15.45;34.80
34177;BME280;20450;49.074;9.158;2023-03-03T12:25:07;100155.50;;;15.28;34.15
34177;BME280;20450;49.074;9.158;2023-03-03T12:27:59;100147.34;;;14.15;36.47
34177;BME280;20450;49.074;9.158;2023-03-03T12:30:42;100152.94;;;14.02;36.69
34177;BME280;20450;49.074;9.158;2023-03-03T12:33:32;100150.31;;;14.14;37.07
34177;BME280;20450;49.074;9.158;2023-03-03T12:36:24;100145.03;;;14.19;36.84
34177;BME280;20450;49.074;9.158;2023-03-03T12:39:17;100153.25;;;13.94;37.36
34177;BME280;20450;49.074;9.158;2023-03-03T12:42:09;100148.31;;;13.84;37.27
34177;BME280;20450;49.074;9.158;2023-03-03T12:44:53;100147.03;;;13.87;38.10
34177;BME280;20450;49.074;9.158;2023-03-03T12:47:31;100150.72;;;13.74;38.59
34177;BME280;20450;49.074;9.158;2023-03-03T12:50:21;100147.69;;;13.82;38.13
34177;BME280;20450;49.074;9.158;2023-03-03T12:53:06;100139.56;;;13.82;38.10
34177;BME280;20450;49.074;9.158;2023-03-03T12:55:48;100144.50;;;13.67;38.33
34177;BME280;20450;49.074;9.158;2023-03-03T12:58:31;100137.09;;;13.56;38.84
34177;BME280;20450;49.074;9.158;2023-03-03T13:01:35;100142.03;;;12.73;39.64
34177;BME280;20450;49.074;9.158;2023-03-03T13:04:12;100140.88;;;12.56;39.88
34177;BME280;20450;49.074;9.158;2023-03-03T13:07:00;100144.44;;;12.50;40.72
34177;BME280;20450;49.074;9.158;2023-03-03T13:09:44;100135.31;;;12.82;40.15
34177;BME280;20450;49.074;9.158;2023-03-03T13:12:30;100134.13;;;13.09;40.46
34177;BME280;20450;49.074;9.158;2023-03-03T13:15:12;100131.22;;;13.04;39.67
34177;BME280;20450;49.074;9.158;2023-03-03T13:18:02;100136.38;;;12.74;39.57
34177;BME280;20450;49.074;9.158;2023-03-03T13:20:50;100133.38;;;12.89;39.55
34177;BME280;20450;49.074;9.158;2023-03-03T13:23:36;100134.13;;;13.09;40.05
34177;BME280;20450;49.074;9.158;2023-03-03T13:26:19;100125.44;;;12.94;40.15
34177;BME280;20450;49.074;9.158;2023-03-03T13:28:57;100126.66;;;12.98;40.36
34177;BME280;20450;49.074;9.158;2023-03-03T13:35:53;100113.16;;;12.91;40.62
34177;BME280;20450;49.074;9.158;2023-03-03T13:38:26;100121.50;;;12.90;39.91
34177;BME280;20450;49.074;9.158;2023-03-03T13:41:03;100119.56;;;12.66;41.01
34177;BME280;20450;49.074;9.158;2023-03-03T13:43:42;100112.44;;;12.65;40.44
34177;BME280;20450;49.074;9.158;2023-03-03T13:46:17;100113.34;;;12.59;40.38
34177;BME280;20450;49.074;9.158;2023-03-03T13:49:10;100112.63;;;12.70;41.06
34177;BME280;20450;49.074;9.158;2023-03-03T13:52:00;100112.00;;;12.74;40.94
34177;BME280;20450;49.074;9.158;2023-03-03T13:54:56;100107.56;;;12.80;41.05